Stony Rapids Airport
CYSF : now visible

Airfield :











YOU CAN JOIN US ON...

 
LOGIN :

Register | Disclaimer

   EN    FR    IT 

 









Legend :    VFR   Marginal VFR   IFR   Intensive IFR   Very Intensive IFR
Visi :
Ceiling :
>= 8 km
>= 3000ft
5 to 8 km
1000 to 3000 ft
1500m to 5 km
500 to 1000 ft
800 to 1500m
200 to 500 ft
< 800m
< 200 ft
Symbols :   Thunderstorms  Fog  Heavy snow  Heavy precipitations  Wind > 20 kt






- Airport Elevation : 805 ft
- IATA code : YSF


CYSF - Stony Rapids

CURRENT METAR :
  • 052000Z AUTO 09016G21KT 9SM CLR M07/M11 A3017 RMK PRESFR SLP244

EXPIRED METARs :
  • 051900Z AUTO 09013G18KT 9SM FEW160 M09/M12 A3023 RMK SLP264
  • 051816Z AUTO 10019G24KT 9SM SCT014 BKN160 M10/M13 A3023 RMK PRESFR SLP262
  • 051800Z AUTO 09015G22KT 9SM OVC014 M10/M13 A3025 RMK SLP272
  • 051732Z AUTO 09019G25KT 9SM OVC014 M11/M14 A3025 RMK PRESFR SLP271

TAF AMD TAF CYSF
Valid from the 05 at 18:00 until the 06 at 06:00 UTC


051823Z 0518/0606 09017G27KT P6SM -SN SCT015 BKN160
TEMPO 0518/0521 5SM -SN BKN015
FM052100 11012KT P6SM BKN030
TEMPO 0521/0604 P6SM -SN OVC020
FM060400 10010KT P6SM SCT008 OVC025
TEMPO 0604/0606 3SM -SN BR OVC008
PROB30 0604/0606 2SM -FZDZ BR OVC006 RMK FCST BASED ON AUTO OBS. NXT FCST BY 060000Z
CZEG FIR / North America



MET'MAP, your aeronautical weather chart ! - Copyright ORBIFLY December 2007 - Disclaimer

ORBIFLY MET'MAP TEAM :

Programming & Development : Alexandra Zaïnal
Concept & original design : Baudouin d'Aumeries
Assistance for programming : Marc-Olivier Méhu
Technical & hardware support : Manuel Goepfert

Contact : metmap@orbifly.com




SOURCES & CREDITS :

   NOAA       Earth
Advisory